Terminal Aerodrome Forecast
Issued by NWS

Home | Current Version | Previous Version | Graphics & Text | Print | Product List | Glossary On
Versions: 1 2 3 4 5 6 7 8 9 10 11 12 13 14 15 16
000
FTUS43 KFGF 282300
TAFBJI
TAF
KBJI 282328Z 2900/2924 29015G22KT 5SM -SN BR OVC009
     FM290200 30014KT P6SM OVC008
     FM291600 30006KT P6SM OVC012
     FM292100 21007KT P6SM OVC020=

USA.gov is the U.S. government's official web portal to all federal, state and local government web resources and services.